Terminal Aerodrome Forecast
Issued by NWS Boston, MA

Home | Current Version | Previous Version | Text Only | Print | Product List | Glossary On
Versions: 1 2 3 4 5 6 7 8 9 10 11 12 13 14 15 16 17 18 19 20 21 22 23 24 25 26 27 28 29 30 31 32 33
000
FTUS41 KBOX 260944 AAA
TAFORH
TAF AMD
KORH 260944Z 2610/2706 31004KT P6SM SCT120
     FM261400 35004KT 1SM -RASN OVC080
     FM261600 02006KT 1SM -SN OVC015
     FM261800 03007KT 1/4SM +SN OVC008
     FM262300 02011G23KT 1/4SM +SNPL OVC010
     FM270200 01011G22KT 1/2SM SN OVC010
     FM270400 35011G20KT P6SM OVC015=

USA.gov is the U.S. government's official web portal to all federal, state and local government web resources and services.